createdAt,value
2024-04-23T00:04:46.602Z,101971.84
2024-04-23T00:09:51.660Z,101965.88
2024-04-23T00:14:59.232Z,101950.47
2024-04-23T00:20:04.266Z,101949.53
2024-04-23T00:25:10.058Z,101946.19
2024-04-23T00:30:17.619Z,101938.88
2024-04-23T00:35:22.604Z,101941.63
2024-04-23T00:40:27.626Z,101934.44
2024-04-23T00:45:37.167Z,101934.91
2024-04-23T00:50:42.633Z,101923.72
2024-04-23T00:55:48.966Z,101920.22
2024-04-23T01:00:57.116Z,101926.31
2024-04-23T01:06:02.162Z,101917.75
2024-04-23T01:11:07.497Z,101911.13
2024-04-23T01:16:16.527Z,101909.75
2024-04-23T01:21:27.302Z,101902.69
2024-04-23T01:26:35.114Z,101903.84
2024-04-23T01:31:40.334Z,101905.97
2024-04-23T01:36:46.006Z,101912.38
2024-04-23T01:41:54.087Z,101910.47
2024-04-23T01:47:00.126Z,101910.28
2024-04-23T01:52:05.497Z,101912.81
2024-04-23T01:57:13.841Z,101905.44
2024-04-23T02:02:20.516Z,101907.72
2024-04-23T02:07:25.683Z,101918.50
2024-04-23T02:12:33.383Z,101909.16
2024-04-23T02:17:39.746Z,101907.91
2024-04-23T02:22:44.820Z,101909.41
2024-04-23T02:27:52.568Z,101909.41
2024-04-23T02:32:57.585Z,101909.81
2024-04-23T02:38:02.624Z,101904.94
2024-04-23T02:43:10.267Z,101903.34
2024-04-23T02:48:15.305Z,101904.81
2024-04-23T02:53:20.319Z,101905.28
2024-04-23T02:58:27.865Z,101900.66
2024-04-23T03:03:32.900Z,101900.66
2024-04-23T03:08:37.990Z,101895.31
2024-04-23T03:13:45.563Z,101884.47
2024-04-23T03:18:50.541Z,101875.41
2024-04-23T03:23:55.473Z,101873.41
2024-04-23T03:29:03.123Z,101866.81
2024-04-23T03:34:08.122Z,101864.47
2024-04-23T03:39:13.062Z,101858.19
2024-04-23T03:44:20.622Z,101862.16
2024-04-23T03:49:25.683Z,101855.13
2024-04-23T03:54:30.643Z,101842.91
2024-04-23T03:59:38.188Z,101844.75
2024-04-23T04:04:59.338Z,101837.16
2024-04-23T04:10:04.325Z,101830.31
2024-04-23T04:15:12.075Z,101829.38
2024-04-23T04:20:17.314Z,101832.13
2024-04-23T04:25:22.265Z,101842.66
2024-04-23T04:30:29.822Z,101852.59
2024-04-23T04:35:34.764Z,101839.72
2024-04-23T04:40:39.776Z,101846.06
2024-04-23T04:45:48.135Z,101846.31
2024-04-23T04:50:53.071Z,101851.13
2024-04-23T04:55:58.648Z,101846.81
2024-04-23T05:01:10.382Z,101836.69
2024-04-23T05:06:15.397Z,101834.53
2024-04-23T05:11:20.424Z,101834.91
2024-04-23T05:16:28.081Z,101838.63
2024-04-23T05:21:33.115Z,101835.78
2024-04-23T05:26:38.094Z,101834.44
2024-04-23T05:32:01.141Z,101828.19
2024-04-23T05:37:06.140Z,101834.75
2024-04-23T05:42:11.134Z,101828.22
2024-04-23T05:47:18.914Z,101827.75
2024-04-23T05:53:01.901Z,101828.06
2024-04-23T05:58:25.680Z,101819.97
2024-04-23T06:03:33.229Z,101820.13
2024-04-23T06:08:38.249Z,101810.00
2024-04-23T06:13:50.225Z,101823.75
2024-04-23T06:18:57.875Z,101820.69
2024-04-23T06:24:02.857Z,101812.84
2024-04-23T06:29:07.835Z,101810.19
2024-04-23T06:34:15.402Z,101803.31
2024-04-23T06:39:20.346Z,101790.72
2024-04-23T06:44:25.763Z,101794.53
2024-04-23T06:49:33.309Z,101793.66
2024-04-23T06:54:38.280Z,101786.41
2024-04-23T06:59:45.933Z,101788.69
2024-04-23T07:04:53.498Z,101774.75
2024-04-23T07:09:59.161Z,101769.63
2024-04-23T07:15:04.505Z,101773.72
2024-04-23T07:20:13.084Z,101757.34
2024-04-23T07:25:21.105Z,101750.47
2024-04-23T07:30:27.707Z,101753.59
2024-04-23T07:35:35.416Z,101745.38
2024-04-23T07:40:40.599Z,101739.16
2024-04-23T07:45:45.615Z,101726.63
2024-04-23T07:50:53.595Z,101726.59
2024-04-23T07:55:58.605Z,101724.47
2024-04-23T08:01:03.633Z,101716.88
2024-04-23T08:06:11.307Z,101708.28
2024-04-23T08:11:16.438Z,101709.41
2024-04-23T08:16:21.845Z,101709.34
2024-04-23T08:21:31.609Z,101699.78
2024-04-23T08:26:36.799Z,101691.94
2024-04-23T08:31:41.809Z,101685.28
2024-04-23T08:36:49.453Z,101679.53
2024-04-23T08:41:55.740Z,101658.91
2024-04-23T08:47:00.859Z,101670.66
2024-04-23T08:52:11.729Z,101656.09
2024-04-23T08:57:18.139Z,101654.56
2024-04-23T09:02:30.111Z,101659.50
2024-04-23T09:07:39.454Z,101651.66
2024-04-23T09:12:47.592Z,101642.19
2024-04-23T09:17:58.728Z,101645.97
2024-04-23T09:23:06.394Z,101632.94
2024-04-23T09:28:11.435Z,101640.09
2024-04-23T09:33:16.673Z,101627.09
2024-04-23T09:38:24.355Z,101620.34
2024-04-23T09:43:29.538Z,101616.22
2024-04-23T09:48:35.202Z,101610.88
2024-04-23T09:53:43.616Z,101605.50
2024-04-23T09:58:49.934Z,101603.59
2024-04-23T10:03:59.127Z,101602.16
2024-04-23T10:09:13.527Z,101594.97
2024-04-23T10:14:24.424Z,101582.34
2024-04-23T10:19:35.532Z,101572.81
2024-04-23T10:24:45.481Z,101569.44
2024-04-23T10:29:51.327Z,101550.41
2024-04-23T10:34:57.879Z,101552.06
2024-04-23T10:40:07.152Z,101543.84
2024-04-23T10:45:12.850Z,101543.38
2024-04-23T10:50:27.224Z,101532.94
2024-04-23T10:55:35.215Z,101526.81
2024-04-23T11:00:40.502Z,101528.06
2024-04-23T11:05:49.470Z,101513.94
2024-04-23T11:11:07.152Z,101513.00
2024-04-23T11:16:19.342Z,101505.28
2024-04-23T11:21:28.890Z,101495.16
2024-04-23T11:26:37.234Z,101503.06
2024-04-23T11:31:42.601Z,101489.72
2024-04-23T11:36:53.578Z,101481.22
2024-04-23T11:42:01.497Z,101476.78
2024-04-23T11:47:06.790Z,101479.31
2024-04-23T11:52:12.918Z,101465.19
2024-04-23T11:57:21.719Z,101480.31
2024-04-23T12:02:27.131Z,101473.53
2024-04-23T12:07:32.249Z,101477.13
2024-04-23T12:12:39.940Z,101465.94
2024-04-23T12:17:45.631Z,101459.16
2024-04-23T12:22:52.341Z,101447.97
2024-04-23T12:28:00.021Z,101440.94
2024-04-23T12:33:12.216Z,101423.81
2024-04-23T12:38:17.526Z,101420.34
2024-04-23T12:43:32.459Z,101411.88
2024-04-23T12:48:39.264Z,101409.16
2024-04-23T12:53:44.776Z,101406.81
2024-04-23T12:58:56.753Z,101408.56
2024-04-23T13:04:01.952Z,101395.50
2024-04-23T13:09:07.074Z,101398.22
2024-04-23T13:14:14.644Z,101392.97
2024-04-23T13:19:24.722Z,101392.47
2024-04-23T13:24:29.739Z,101386.72
2024-04-23T13:29:37.327Z,101375.09
2024-04-23T13:34:42.346Z,101357.47
2024-04-23T13:39:47.374Z,101349.78
2024-04-23T13:44:54.936Z,101341.16
2024-04-23T13:49:59.983Z,101327.28
2024-04-23T13:55:04.949Z,101312.88
2024-04-23T14:00:14.294Z,101303.13
2024-04-23T14:05:21.142Z,101290.47
2024-04-23T14:10:26.122Z,101286.38
2024-04-23T14:15:33.733Z,101267.72
2024-04-23T14:20:38.714Z,101264.34
2024-04-23T14:25:43.848Z,101264.28
2024-04-23T14:30:51.377Z,101253.50
2024-04-23T14:35:56.329Z,101247.50
2024-04-23T14:41:01.818Z,101230.88
2024-04-23T14:46:15.730Z,101231.19
2024-04-23T14:51:21.673Z,101223.66
2024-04-23T14:56:26.626Z,101214.38
2024-04-23T15:01:34.798Z,101209.50
2024-04-23T15:06:39.765Z,101205.22
2024-04-23T15:11:44.772Z,101198.72
2024-04-23T15:16:52.414Z,101200.91
2024-04-23T15:21:57.395Z,101190.84
2024-04-23T15:27:02.411Z,101198.25
2024-04-23T15:32:11.676Z,101182.78
2024-04-23T15:37:16.715Z,101179.94
2024-04-23T15:42:23.338Z,101169.72
2024-04-23T15:47:30.974Z,101167.19
2024-04-23T15:52:37.144Z,101159.59
2024-04-23T15:57:42.249Z,101152.91
2024-04-23T16:02:49.938Z,101156.78
2024-04-23T16:07:55.095Z,101147.56
2024-04-23T16:13:00.054Z,101150.78
2024-04-23T16:18:08.860Z,101130.94
2024-04-23T16:23:13.992Z,101125.59
2024-04-23T16:28:19.118Z,101117.13
2024-04-23T16:33:26.853Z,101117.44
2024-04-23T16:38:32.211Z,101105.97
2024-04-23T16:43:37.644Z,101106.38
2024-04-23T16:48:45.350Z,101093.31
2024-04-23T16:53:50.365Z,101089.13
2024-04-23T16:58:56.706Z,101087.38
2024-04-23T17:04:04.421Z,101089.00
2024-04-23T17:09:09.692Z,101080.53
2024-04-23T17:14:14.750Z,101071.16
2024-04-23T17:19:23.034Z,101066.41
2024-04-23T17:24:28.149Z,101062.56
2024-04-23T17:29:33.113Z,101063.50
2024-04-23T17:34:40.790Z,101056.50
2024-04-23T17:39:45.832Z,101045.97
2024-04-23T17:44:50.815Z,101045.91
2024-04-23T17:50:01.660Z,101039.78
2024-04-23T17:55:08.408Z,101036.50
2024-04-23T18:00:14.493Z,101025.06
2024-04-23T18:05:23.081Z,101022.78
2024-04-23T18:10:28.559Z,101022.19
2024-04-23T18:15:33.669Z,101024.75
2024-04-23T18:20:41.251Z,101017.91
2024-04-23T18:25:46.281Z,101025.25
2024-04-23T18:30:51.379Z,101020.22
2024-04-23T18:35:59.094Z,101013.97
2024-04-23T18:41:08.677Z,101017.63
2024-04-23T18:46:17.052Z,101006.31
2024-04-23T18:51:24.835Z,101011.84
2024-04-23T18:56:29.816Z,101006.88
2024-04-23T19:01:34.808Z,101004.31
2024-04-23T19:06:42.418Z,100993.34
2024-04-23T19:11:47.487Z,100995.31
2024-04-23T19:16:52.629Z,100985.16
2024-04-23T19:22:01.245Z,100983.19
2024-04-23T19:27:06.266Z,100982.81
2024-04-23T19:32:11.375Z,100980.78
2024-04-23T19:37:19.035Z,100972.53
2024-04-23T19:42:24.852Z,100965.19
2024-04-23T19:47:29.870Z,100959.38
2024-04-23T19:52:37.424Z,100956.06
2024-04-23T19:57:58.704Z,100949.47
2024-04-23T20:03:03.780Z,100934.53
2024-04-23T20:08:11.418Z,100932.50
2024-04-23T20:13:16.406Z,100929.53
2024-04-23T20:18:21.657Z,100921.38
2024-04-23T20:23:29.340Z,100933.38
2024-04-23T20:28:34.291Z,100919.78
2024-04-23T20:33:39.386Z,100918.19
2024-04-23T20:38:47.007Z,100908.31
2024-04-23T20:43:51.983Z,100911.28
2024-04-23T20:48:56.978Z,100896.66
2024-04-23T20:54:04.565Z,100893.06
2024-04-23T20:59:09.517Z,100893.06
2024-04-23T21:04:15.989Z,100884.91
2024-04-23T21:09:23.626Z,100888.03
2024-04-23T21:14:28.584Z,100882.19
2024-04-23T21:19:33.536Z,100872.03
2024-04-23T21:24:41.082Z,100867.00
2024-04-23T21:29:46.035Z,100860.25
2024-04-23T21:34:54.884Z,100860.66
2024-04-23T21:40:04.691Z,100857.44
2024-04-23T21:45:10.664Z,100843.72
2024-04-23T21:50:15.737Z,100843.94
2024-04-23T21:55:23.294Z,100830.22
2024-04-23T22:00:28.887Z,100834.00
2024-04-23T22:05:33.863Z,100830.59
2024-04-23T22:10:41.596Z,100824.03
2024-04-23T22:15:46.643Z,100814.16
2024-04-23T22:20:51.922Z,100807.72
2024-04-23T22:26:01.476Z,100804.66
2024-04-23T22:31:06.971Z,100794.00
2024-04-23T22:36:12.542Z,100791.19
2024-04-23T22:41:20.172Z,100778.59
2024-04-23T22:46:26.940Z,100780.91
2024-04-23T22:51:43.085Z,100770.94
2024-04-23T22:56:50.687Z,100756.53
2024-04-23T23:01:56.610Z,100751.00
2024-04-23T23:07:01.611Z,100760.56
2024-04-23T23:12:09.561Z,100754.19
2024-04-23T23:17:14.623Z,100760.00
2024-04-23T23:22:19.578Z,100749.03
2024-04-23T23:27:27.153Z,100743.31
2024-04-23T23:32:32.338Z,100737.03
2024-04-23T23:37:37.400Z,100728.22
2024-04-23T23:42:44.954Z,100722.09
2024-04-23T23:47:50.168Z,100720.47
2024-04-23T23:52:55.354Z,100710.13
2024-04-23T23:58:02.956Z,100702.19
